This is the latest recevied weather packets stored in our database for station/object KH6HHG. If no packets are shown the sender has not sent any weather packets the latest 10 day(s).
| Time | Temp. | Humidity | Pressure | Rain* | Wind** | Luminosity | Snow |
|---|---|---|---|---|---|---|---|
| 1777848698 | 25.56° C | 69% | 1012.5 hPa | 0 mm | - | - | - |
| 1777848398 | 25.56° C | 69% | 1012.6 hPa | 0 mm | - | - | - |
| 1777848098 | 25.56° C | 70% | 1012.6 hPa | 0 mm | - | - | - |
| 1777847798 | 25.56° C | 71% | 1012.7 hPa | 0 mm | - | - | - |
| 1777847498 | 25.56° C | 71% | 1012.8 hPa | 0 mm | - | - | - |
| 1777847198 | 25° C | 71% | 1012.9 hPa | 0 mm | - | - | - |
| 1777846897 | 25° C | 74% | 1013 hPa | 0 mm | - | - | - |
| 1777846597 | 25° C | 71% | 1013 hPa | 0 mm | - | - | - |
| 1777846297 | 25° C | 70% | 1013 hPa | 0 mm | - | - | - |
| 1777845997 | 25.56° C | 71% | 1013 hPa | 0 mm | - | - | - |
| 1777845698 | 25.56° C | 70% | 1013.1 hPa | 0 mm | - | - | - |
| 1777845397 | 26.11° C | 69% | 1013.3 hPa | 0 mm | - | - | - |
| 1777845097 | 25.56° C | 70% | 1013.3 hPa | 0 mm | - | - | - |
| 1777844797 | 25.56° C | 68% | 1013.2 hPa | 0 mm | - | - | - |
| 1777844497 | 25.56° C | 71% | 1013.3 hPa | 0 mm | - | - | - |
| 1777844197 | 25° C | 72% | 1013.4 hPa | 0 mm | - | - | - |
| 1777843897 | 24.44° C | 74% | 1013.6 hPa | 0 mm | - | - | - |
| 1777843597 | 24.44° C | 76% | 1013.6 hPa | 0 mm | - | - | - |
| 1777843297 | 24.44° C | 75% | 1013.7 hPa | 0 mm | - | - | - |
| 1777842997 | 25.56° C | 73% | 1013.7 hPa | 0 mm | - | - | - |
| 1777842697 | 26.11° C | 69% | 1013.7 hPa | 0 mm | - | - | - |
| 1777842397 | 26.67° C | 67% | 1013.7 hPa | 0 mm | - | - | - |
| 1777842098 | 26.11° C | 69% | 1013.7 hPa | 0 mm | - | - | - |
| 1777841798 | 26.11° C | 67% | 1013.7 hPa | 0 mm | - | - | - |
| 1777841498 | 25.56° C | 68% | 1013.8 hPa | 0 mm | - | - | - |
* Rain latest hour (hover to see other rain measurements)
** Current wind speed in m/s (hover to see current wind gust speed)